sensor_id;sensor_type;location;lat;lon;timestamp;P1;durP1;ratioP1;P2;durP2;ratioP2
60704;SDS011;46545;38.014;-7.874;2023-03-23T00:00:43;23.20;;;10.63;;
60704;SDS011;46545;38.014;-7.874;2023-03-23T00:02:44;27.10;;;10.93;;
60704;SDS011;46545;38.014;-7.874;2023-03-23T00:04:45;20.50;;;11.15;;
60704;SDS011;46545;38.014;-7.874;2023-03-23T00:06:49;21.48;;;10.50;;
60704;SDS011;46545;38.014;-7.874;2023-03-23T00:08:50;20.98;;;11.55;;
60704;SDS011;46545;38.014;-7.874;2023-03-23T00:10:56;24.42;;;11.82;;
60704;SDS011;46545;38.014;-7.874;2023-03-23T00:12:56;24.17;;;11.30;;
60704;SDS011;46545;38.014;-7.874;2023-03-23T00:14:57;21.38;;;10.25;;
60704;SDS011;46545;38.014;-7.874;2023-03-23T00:16:58;19.98;;;9.65;;
60704;SDS011;46545;38.014;-7.874;2023-03-23T00:19:00;23.15;;;11.48;;
60704;SDS011;46545;38.014;-7.874;2023-03-23T00:21:01;16.45;;;9.48;;
60704;SDS011;46545;38.014;-7.874;2023-03-23T00:23:04;23.73;;;9.83;;
60704;SDS011;46545;38.014;-7.874;2023-03-23T00:25:04;19.23;;;9.70;;
60704;SDS011;46545;38.014;-7.874;2023-03-23T00:27:05;17.98;;;9.60;;
60704;SDS011;46545;38.014;-7.874;2023-03-23T00:29:07;21.77;;;9.80;;
60704;SDS011;46545;38.014;-7.874;2023-03-23T00:31:08;24.42;;;10.00;;
60704;SDS011;46545;38.014;-7.874;2023-03-23T00:33:09;16.83;;;9.85;;
60704;SDS011;46545;38.014;-7.874;2023-03-23T00:35:13;20.70;;;10.30;;
60704;SDS011;46545;38.014;-7.874;2023-03-23T00:37:14;24.23;;;10.00;;
60704;SDS011;46545;38.014;-7.874;2023-03-23T00:39:16;21.20;;;9.35;;
60704;SDS011;46545;38.014;-7.874;2023-03-23T00:41:17;21.25;;;9.18;;
60704;SDS011;46545;38.014;-7.874;2023-03-23T00:43:18;20.67;;;9.00;;
60704;SDS011;46545;38.014;-7.874;2023-03-23T00:45:19;25.52;;;9.52;;
60704;SDS011;46545;38.014;-7.874;2023-03-23T00:47:19;23.60;;;8.98;;
60704;SDS011;46545;38.014;-7.874;2023-03-23T00:49:21;21.00;;;9.07;;
60704;SDS011;46545;38.014;-7.874;2023-03-23T00:51:25;19.42;;;9.57;;
60704;SDS011;46545;38.014;-7.874;2023-03-23T00:53:25;23.45;;;8.88;;
60704;SDS011;46545;38.014;-7.874;2023-03-23T00:55:26;19.38;;;9.52;;
60704;SDS011;46545;38.014;-7.874;2023-03-23T00:57:26;21.98;;;9.93;;
60704;SDS011;46545;38.014;-7.874;2023-03-23T00:59:27;16.55;;;9.07;;
60704;SDS011;46545;38.014;-7.874;2023-03-23T01:01:27;20.75;;;9.40;;
60704;SDS011;46545;38.014;-7.874;2023-03-23T01:03:27;22.08;;;10.70;;
60704;SDS011;46545;38.014;-7.874;2023-03-23T01:05:28;16.60;;;8.88;;
60704;SDS011;46545;38.014;-7.874;2023-03-23T01:07:32;20.40;;;8.65;;
60704;SDS011;46545;38.014;-7.874;2023-03-23T01:09:35;21.00;;;10.77;;
60704;SDS011;46545;38.014;-7.874;2023-03-23T01:11:36;23.23;;;9.60;;
60704;SDS011;46545;38.014;-7.874;2023-03-23T01:13:39;18.33;;;10.38;;
60704;SDS011;46545;38.014;-7.874;2023-03-23T01:15:40;28.88;;;12.10;;
60704;SDS011;46545;38.014;-7.874;2023-03-23T01:17:42;21.08;;;11.82;;
60704;SDS011;46545;38.014;-7.874;2023-03-23T01:19:42;27.27;;;12.68;;
60704;SDS011;46545;38.014;-7.874;2023-03-23T01:21:43;25.60;;;12.95;;
60704;SDS011;46545;38.014;-7.874;2023-03-23T01:23:44;31.45;;;16.30;;
60704;SDS011;46545;38.014;-7.874;2023-03-23T01:25:44;27.48;;;13.70;;
60704;SDS011;46545;38.014;-7.874;2023-03-23T01:27:45;26.55;;;14.43;;
60704;SDS011;46545;38.014;-7.874;2023-03-23T01:29:46;33.65;;;14.73;;
60704;SDS011;46545;38.014;-7.874;2023-03-23T01:34:09;37.83;;;17.90;;
60704;SDS011;46545;38.014;-7.874;2023-03-23T01:36:15;30.40;;;15.40;;
60704;SDS011;46545;38.014;-7.874;2023-03-23T01:38:17;34.05;;;14.52;;
60704;SDS011;46545;38.014;-7.874;2023-03-23T01:40:17;33.25;;;13.57;;
60704;SDS011;46545;38.014;-7.874;2023-03-23T01:42:21;35.70;;;15.27;;
60704;SDS011;46545;38.014;-7.874;2023-03-23T01:46:32;34.90;;;14.63;;
60704;SDS011;46545;38.014;-7.874;2023-03-23T01:48:34;31.35;;;13.85;;
60704;SDS011;46545;38.014;-7.874;2023-03-23T01:50:37;30.95;;;12.88;;
60704;SDS011;46545;38.014;-7.874;2023-03-23T01:52:38;30.02;;;12.85;;
60704;SDS011;46545;38.014;-7.874;2023-03-23T01:54:39;30.38;;;13.52;;
60704;SDS011;46545;38.014;-7.874;2023-03-23T01:56:41;29.38;;;13.25;;
60704;SDS011;46545;38.014;-7.874;2023-03-23T01:58:45;30.85;;;15.38;;
60704;SDS011;46545;38.014;-7.874;2023-03-23T02:00:46;29.65;;;15.40;;
60704;SDS011;46545;38.014;-7.874;2023-03-23T02:02:48;30.33;;;16.73;;
60704;SDS011;46545;38.014;-7.874;2023-03-23T02:04:50;35.65;;;15.50;;
60704;SDS011;46545;38.014;-7.874;2023-03-23T02:06:52;26.38;;;14.88;;
60704;SDS011;46545;38.014;-7.874;2023-03-23T02:08:56;26.02;;;13.18;;
60704;SDS011;46545;38.014;-7.874;2023-03-23T02:10:58;32.22;;;14.98;;
60704;SDS011;46545;38.014;-7.874;2023-03-23T02:12:59;25.63;;;13.60;;
60704;SDS011;46545;38.014;-7.874;2023-03-23T02:15:01;27.33;;;13.43;;
60704;SDS011;46545;38.014;-7.874;2023-03-23T02:17:11;24.35;;;13.50;;
60704;SDS011;46545;38.014;-7.874;2023-03-23T02:19:27;23.23;;;12.77;;
60704;SDS011;46545;38.014;-7.874;2023-03-23T02:23:37;35.38;;;14.88;;
60704;SDS011;46545;38.014;-7.874;2023-03-23T02:25:55;28.27;;;14.27;;
60704;SDS011;46545;38.014;-7.874;2023-03-23T02:34:42;30.08;;;15.13;;
60704;SDS011;46545;38.014;-7.874;2023-03-23T02:37:02;36.17;;;18.27;;
60704;SDS011;46545;38.014;-7.874;2023-03-23T02:39:05;46.20;;;20.98;;
60704;SDS011;46545;38.014;-7.874;2023-03-23T02:41:08;33.45;;;17.92;;
60704;SDS011;46545;38.014;-7.874;2023-03-23T02:43:11;39.78;;;19.05;;
60704;SDS011;46545;38.014;-7.874;2023-03-23T02:45:13;42.42;;;21.80;;
60704;SDS011;46545;38.014;-7.874;2023-03-23T02:47:16;38.35;;;19.95;;
60704;SDS011;46545;38.014;-7.874;2023-03-23T02:49:17;38.58;;;21.92;;
60704;SDS011;46545;38.014;-7.874;2023-03-23T02:51:20;42.42;;;21.80;;
60704;SDS011;46545;38.014;-7.874;2023-03-23T02:53:22;42.10;;;21.80;;
60704;SDS011;46545;38.014;-7.874;2023-03-23T02:55:26;42.05;;;20.63;;
60704;SDS011;46545;38.014;-7.874;2023-03-23T02:57:28;43.28;;;21.02;;
60704;SDS011;46545;38.014;-7.874;2023-03-23T02:59:32;38.65;;;20.38;;
60704;SDS011;46545;38.014;-7.874;2023-03-23T03:03:33;43.30;;;20.50;;
60704;SDS011;46545;38.014;-7.874;2023-03-23T03:07:47;60.85;;;23.58;;
60704;SDS011;46545;38.014;-7.874;2023-03-23T03:09:55;55.33;;;25.77;;
60704;SDS011;46545;38.014;-7.874;2023-03-23T03:12:02;56.03;;;24.85;;
60704;SDS011;46545;38.014;-7.874;2023-03-23T03:14:06;52.30;;;21.27;;
60704;SDS011;46545;38.014;-7.874;2023-03-23T03:16:14;52.67;;;20.20;;
60704;SDS011;46545;38.014;-7.874;2023-03-23T03:18:21;41.08;;;18.00;;
60704;SDS011;46545;38.014;-7.874;2023-03-23T03:20:23;49.15;;;20.02;;
60704;SDS011;46545;38.014;-7.874;2023-03-23T03:22:26;46.58;;;22.60;;
60704;SDS011;46545;38.014;-7.874;2023-03-23T03:24:31;44.97;;;20.52;;
60704;SDS011;46545;38.014;-7.874;2023-03-23T03:26:31;31.70;;;14.82;;
60704;SDS011;46545;38.014;-7.874;2023-03-23T03:28:52;31.33;;;11.60;;
60704;SDS011;46545;38.014;-7.874;2023-03-23T03:30:55;18.10;;;7.80;;
60704;SDS011;46545;38.014;-7.874;2023-03-23T03:32:56;25.70;;;8.82;;
60704;SDS011;46545;38.014;-7.874;2023-03-23T03:35:00;23.10;;;9.30;;
60704;SDS011;46545;38.014;-7.874;2023-03-23T03:39:06;17.02;;;5.97;;
60704;SDS011;46545;38.014;-7.874;2023-03-23T03:41:09;20.98;;;6.40;;
60704;SDS011;46545;38.014;-7.874;2023-03-23T03:43:10;21.65;;;6.28;;
60704;SDS011;46545;38.014;-7.874;2023-03-23T03:45:13;15.55;;;4.93;;
60704;SDS011;46545;38.014;-7.874;2023-03-23T03:47:13;11.38;;;4.80;;
60704;SDS011;46545;38.014;-7.874;2023-03-23T03:49:14;17.10;;;5.53;;
60704;SDS011;46545;38.014;-7.874;2023-03-23T03:51:15;18.35;;;6.43;;
60704;SDS011;46545;38.014;-7.874;2023-03-23T03:53:22;18.60;;;7.10;;
60704;SDS011;46545;38.014;-7.874;2023-03-23T03:55:22;25.13;;;12.02;;
60704;SDS011;46545;38.014;-7.874;2023-03-23T03:57:24;36.60;;;14.95;;
60704;SDS011;46545;38.014;-7.874;2023-03-23T03:59:27;39.55;;;16.05;;
60704;SDS011;46545;38.014;-7.874;2023-03-23T04:01:43;37.45;;;16.15;;
60704;SDS011;46545;38.014;-7.874;2023-03-23T04:03:43;47.65;;;17.30;;
60704;SDS011;46545;38.014;-7.874;2023-03-23T04:05:52;44.42;;;19.65;;
60704;SDS011;46545;38.014;-7.874;2023-03-23T04:07:56;46.25;;;22.02;;
60704;SDS011;46545;38.014;-7.874;2023-03-23T04:10:03;45.38;;;20.15;;
60704;SDS011;46545;38.014;-7.874;2023-03-23T04:12:04;44.17;;;20.63;;
60704;SDS011;46545;38.014;-7.874;2023-03-23T04:14:28;40.53;;;18.73;;
60704;SDS011;46545;38.014;-7.874;2023-03-23T04:16:29;47.55;;;19.98;;
60704;SDS011;46545;38.014;-7.874;2023-03-23T04:18:31;49.60;;;19.90;;
60704;SDS011;46545;38.014;-7.874;2023-03-23T04:20:34;46.38;;;18.67;;
60704;SDS011;46545;38.014;-7.874;2023-03-23T04:22:36;41.05;;;14.38;;
60704;SDS011;46545;38.014;-7.874;2023-03-23T04:24:37;47.58;;;16.05;;
60704;SDS011;46545;38.014;-7.874;2023-03-23T04:26:41;33.70;;;12.57;;
60704;SDS011;46545;38.014;-7.874;2023-03-23T04:28:52;37.63;;;14.32;;
60704;SDS011;46545;38.014;-7.874;2023-03-23T04:31:25;37.03;;;14.45;;
60704;SDS011;46545;38.014;-7.874;2023-03-23T04:33:32;37.70;;;14.15;;
60704;SDS011;46545;38.014;-7.874;2023-03-23T04:35:33;30.63;;;14.30;;
60704;SDS011;46545;38.014;-7.874;2023-03-23T04:37:57;36.92;;;16.77;;
60704;SDS011;46545;38.014;-7.874;2023-03-23T04:39:59;32.65;;;16.00;;
60704;SDS011;46545;38.014;-7.874;2023-03-23T04:42:24;39.90;;;16.23;;
60704;SDS011;46545;38.014;-7.874;2023-03-23T04:44:25;27.65;;;13.85;;
60704;SDS011;46545;38.014;-7.874;2023-03-23T04:46:38;30.90;;;10.15;;
60704;SDS011;46545;38.014;-7.874;2023-03-23T04:48:43;27.48;;;13.82;;
60704;SDS011;46545;38.014;-7.874;2023-03-23T04:50:51;34.63;;;14.70;;
60704;SDS011;46545;38.014;-7.874;2023-03-23T04:53:01;26.00;;;12.80;;
60704;SDS011;46545;38.014;-7.874;2023-03-23T04:55:06;26.63;;;11.82;;
60704;SDS011;46545;38.014;-7.874;2023-03-23T04:57:08;23.60;;;12.13;;
60704;SDS011;46545;38.014;-7.874;2023-03-23T04:59:13;33.53;;;11.27;;
60704;SDS011;46545;38.014;-7.874;2023-03-23T05:01:33;22.75;;;10.45;;
60704;SDS011;46545;38.014;-7.874;2023-03-23T05:03:48;12.70;;;6.18;;
60704;SDS011;46545;38.014;-7.874;2023-03-23T05:05:49;13.68;;;3.72;;
60704;SDS011;46545;38.014;-7.874;2023-03-23T05:07:55;6.72;;;3.22;;
60704;SDS011;46545;38.014;-7.874;2023-03-23T05:09:59;8.98;;;2.83;;
60704;SDS011;46545;38.014;-7.874;2023-03-23T05:12:04;4.68;;;1.70;;
60704;SDS011;46545;38.014;-7.874;2023-03-23T05:14:07;5.28;;;2.47;;
60704;SDS011;46545;38.014;-7.874;2023-03-23T05:16:08;11.60;;;2.08;;
60704;SDS011;46545;38.014;-7.874;2023-03-23T05:18:13;9.45;;;2.38;;
60704;SDS011;46545;38.014;-7.874;2023-03-23T05:20:15;5.63;;;2.10;;
60704;SDS011;46545;38.014;-7.874;2023-03-23T05:22:21;8.60;;;2.50;;
60704;SDS011;46545;38.014;-7.874;2023-03-23T05:24:24;11.70;;;2.37;;
60704;SDS011;46545;38.014;-7.874;2023-03-23T05:26:26;4.22;;;2.10;;
60704;SDS011;46545;38.014;-7.874;2023-03-23T05:28:32;8.75;;;2.13;;
60704;SDS011;46545;38.014;-7.874;2023-03-23T05:30:53;6.65;;;1.92;;
60704;SDS011;46545;38.014;-7.874;2023-03-23T05:32:54;7.10;;;2.05;;
60704;SDS011;46545;38.014;-7.874;2023-03-23T05:35:16;7.78;;;2.17;;
60704;SDS011;46545;38.014;-7.874;2023-03-23T05:37:17;8.63;;;2.90;;
60704;SDS011;46545;38.014;-7.874;2023-03-23T05:39:23;8.60;;;4.18;;
60704;SDS011;46545;38.014;-7.874;2023-03-23T05:41:40;9.77;;;4.20;;
60704;SDS011;46545;38.014;-7.874;2023-03-23T05:43:41;10.93;;;4.55;;
60704;SDS011;46545;38.014;-7.874;2023-03-23T05:45:48;10.93;;;5.30;;
60704;SDS011;46545;38.014;-7.874;2023-03-23T05:47:50;9.82;;;3.78;;
60704;SDS011;46545;38.014;-7.874;2023-03-23T05:49:54;12.98;;;5.47;;
60704;SDS011;46545;38.014;-7.874;2023-03-23T05:51:56;13.60;;;5.25;;
60704;SDS011;46545;38.014;-7.874;2023-03-23T05:53:58;14.90;;;6.60;;
60704;SDS011;46545;38.014;-7.874;2023-03-23T05:56:01;15.27;;;6.93;;
60704;SDS011;46545;38.014;-7.874;2023-03-23T05:58:20;16.80;;;8.23;;
60704;SDS011;46545;38.014;-7.874;2023-03-23T06:00:21;13.60;;;7.88;;
60704;SDS011;46545;38.014;-7.874;2023-03-23T06:02:29;16.92;;;8.32;;
60704;SDS011;46545;38.014;-7.874;2023-03-23T06:04:31;15.05;;;7.32;;
60704;SDS011;46545;38.014;-7.874;2023-03-23T06:06:46;14.85;;;6.97;;
60704;SDS011;46545;38.014;-7.874;2023-03-23T06:08:48;13.98;;;8.32;;
60704;SDS011;46545;38.014;-7.874;2023-03-23T06:10:51;14.45;;;8.95;;
60704;SDS011;46545;38.014;-7.874;2023-03-23T06:12:53;22.73;;;11.07;;
60704;SDS011;46545;38.014;-7.874;2023-03-23T06:15:19;21.30;;;11.25;;
60704;SDS011;46545;38.014;-7.874;2023-03-23T06:17:38;16.92;;;10.35;;
60704;SDS011;46545;38.014;-7.874;2023-03-23T06:19:39;20.52;;;11.65;;
60704;SDS011;46545;38.014;-7.874;2023-03-23T06:21:44;24.02;;;10.35;;
60704;SDS011;46545;38.014;-7.874;2023-03-23T06:24:05;17.88;;;9.13;;
60704;SDS011;46545;38.014;-7.874;2023-03-23T06:26:07;18.23;;;8.40;;
60704;SDS011;46545;38.014;-7.874;2023-03-23T06:28:08;16.83;;;8.27;;
60704;SDS011;46545;38.014;-7.874;2023-03-23T06:30:13;16.48;;;7.57;;
60704;SDS011;46545;38.014;-7.874;2023-03-23T06:32:15;14.27;;;5.97;;
60704;SDS011;46545;38.014;-7.874;2023-03-23T06:34:17;12.60;;;5.90;;
60704;SDS011;46545;38.014;-7.874;2023-03-23T06:36:38;14.45;;;5.85;;
60704;SDS011;46545;38.014;-7.874;2023-03-23T06:38:46;17.33;;;5.93;;
60704;SDS011;46545;38.014;-7.874;2023-03-23T06:40:51;18.25;;;6.90;;
60704;SDS011;46545;38.014;-7.874;2023-03-23T06:42:51;17.05;;;6.78;;
60704;SDS011;46545;38.014;-7.874;2023-03-23T06:44:58;19.75;;;7.18;;
60704;SDS011;46545;38.014;-7.874;2023-03-23T06:47:00;13.93;;;7.72;;
60704;SDS011;46545;38.014;-7.874;2023-03-23T06:49:07;27.15;;;8.75;;
60704;SDS011;46545;38.014;-7.874;2023-03-23T06:51:16;23.30;;;7.35;;
60704;SDS011;46545;38.014;-7.874;2023-03-23T06:53:21;22.13;;;9.27;;
60704;SDS011;46545;38.014;-7.874;2023-03-23T06:55:23;21.92;;;8.27;;
60704;SDS011;46545;38.014;-7.874;2023-03-23T06:57:23;22.25;;;9.30;;
60704;SDS011;46545;38.014;-7.874;2023-03-23T06:59:25;24.75;;;8.50;;
60704;SDS011;46545;38.014;-7.874;2023-03-23T07:01:26;19.00;;;7.88;;
60704;SDS011;46545;38.014;-7.874;2023-03-23T07:03:36;21.60;;;8.50;;
60704;SDS011;46545;38.014;-7.874;2023-03-23T07:05:37;30.08;;;9.65;;
60704;SDS011;46545;38.014;-7.874;2023-03-23T07:07:42;34.08;;;8.45;;
60704;SDS011;46545;38.014;-7.874;2023-03-23T07:09:55;33.20;;;8.75;;
60704;SDS011;46545;38.014;-7.874;2023-03-23T07:11:58;27.00;;;8.07;;
60704;SDS011;46545;38.014;-7.874;2023-03-23T07:14:06;30.25;;;9.70;;
60704;SDS011;46545;38.014;-7.874;2023-03-23T07:16:06;29.92;;;9.57;;
60704;SDS011;46545;38.014;-7.874;2023-03-23T07:18:08;20.98;;;9.02;;
60704;SDS011;46545;38.014;-7.874;2023-03-23T07:20:14;26.02;;;8.30;;
60704;SDS011;46545;38.014;-7.874;2023-03-23T07:22:15;19.83;;;7.20;;
60704;SDS011;46545;38.014;-7.874;2023-03-23T07:24:21;21.75;;;9.35;;
60704;SDS011;46545;38.014;-7.874;2023-03-23T07:26:42;31.65;;;11.20;;
60704;SDS011;46545;38.014;-7.874;2023-03-23T07:28:43;36.30;;;11.73;;
60704;SDS011;46545;38.014;-7.874;2023-03-23T07:31:02;31.08;;;13.48;;
60704;SDS011;46545;38.014;-7.874;2023-03-23T07:33:06;44.63;;;16.67;;
60704;SDS011;46545;38.014;-7.874;2023-03-23T07:35:07;36.75;;;15.88;;
60704;SDS011;46545;38.014;-7.874;2023-03-23T07:37:20;38.80;;;17.48;;
60704;SDS011;46545;38.014;-7.874;2023-03-23T07:39:23;46.72;;;20.90;;
60704;SDS011;46545;38.014;-7.874;2023-03-23T07:41:27;42.95;;;20.38;;
60704;SDS011;46545;38.014;-7.874;2023-03-23T07:43:29;44.85;;;17.45;;
60704;SDS011;46545;38.014;-7.874;2023-03-23T07:45:45;42.05;;;19.67;;
60704;SDS011;46545;38.014;-7.874;2023-03-23T07:47:48;45.28;;;20.48;;
60704;SDS011;46545;38.014;-7.874;2023-03-23T07:49:48;40.83;;;18.90;;
60704;SDS011;46545;38.014;-7.874;2023-03-23T07:52:09;24.08;;;12.77;;
60704;SDS011;46545;38.014;-7.874;2023-03-23T07:54:11;22.88;;;12.30;;
60704;SDS011;46545;38.014;-7.874;2023-03-23T07:56:27;23.58;;;12.13;;
60704;SDS011;46545;38.014;-7.874;2023-03-23T07:58:37;19.55;;;9.60;;
60704;SDS011;46545;38.014;-7.874;2023-03-23T08:00:37;7.95;;;3.92;;
60704;SDS011;46545;38.014;-7.874;2023-03-23T08:02:42;10.82;;;4.35;;
60704;SDS011;46545;38.014;-7.874;2023-03-23T08:04:57;7.40;;;3.83;;
60704;SDS011;46545;38.014;-7.874;2023-03-23T08:07:19;6.55;;;2.65;;
60704;SDS011;46545;38.014;-7.874;2023-03-23T08:09:26;8.75;;;3.25;;
60704;SDS011;46545;38.014;-7.874;2023-03-23T08:11:46;11.20;;;4.72;;
60704;SDS011;46545;38.014;-7.874;2023-03-23T08:14:06;13.48;;;4.22;;
60704;SDS011;46545;38.014;-7.874;2023-03-23T08:16:30;6.85;;;3.75;;
60704;SDS011;46545;38.014;-7.874;2023-03-23T08:18:42;6.35;;;3.63;;
60704;SDS011;46545;38.014;-7.874;2023-03-23T08:21:11;7.30;;;4.28;;
60704;SDS011;46545;38.014;-7.874;2023-03-23T08:23:32;7.90;;;3.72;;
60704;SDS011;46545;38.014;-7.874;2023-03-23T08:25:36;7.70;;;3.55;;
60704;SDS011;46545;38.014;-7.874;2023-03-23T08:27:55;10.18;;;4.03;;
60704;SDS011;46545;38.014;-7.874;2023-03-23T08:30:15;5.10;;;3.70;;
60704;SDS011;46545;38.014;-7.874;2023-03-23T08:32:48;9.73;;;3.60;;
60704;SDS011;46545;38.014;-7.874;2023-03-23T08:35:09;7.50;;;3.95;;
60704;SDS011;46545;38.014;-7.874;2023-03-23T08:37:34;5.63;;;2.80;;
60704;SDS011;46545;38.014;-7.874;2023-03-23T08:39:34;11.45;;;4.03;;
60704;SDS011;46545;38.014;-7.874;2023-03-23T08:41:45;6.30;;;3.13;;
60704;SDS011;46545;38.014;-7.874;2023-03-23T08:43:52;7.47;;;3.53;;
60704;SDS011;46545;38.014;-7.874;2023-03-23T08:45:58;7.63;;;3.40;;
60704;SDS011;46545;38.014;-7.874;2023-03-23T08:48:34;6.45;;;2.97;;
60704;SDS011;46545;38.014;-7.874;2023-03-23T08:52:49;8.10;;;4.05;;
60704;SDS011;46545;38.014;-7.874;2023-03-23T08:58:08;8.18;;;4.35;;
60704;SDS011;46545;38.014;-7.874;2023-03-23T09:00:34;6.90;;;3.45;;
60704;SDS011;46545;38.014;-7.874;2023-03-23T09:02:52;10.77;;;4.47;;
60704;SDS011;46545;38.014;-7.874;2023-03-23T09:04:55;6.88;;;3.65;;
60704;SDS011;46545;38.014;-7.874;2023-03-23T09:07:18;9.43;;;4.43;;
60704;SDS011;46545;38.014;-7.874;2023-03-23T09:09:18;9.10;;;4.38;;
60704;SDS011;46545;38.014;-7.874;2023-03-23T09:11:19;10.07;;;3.70;;
60704;SDS011;46545;38.014;-7.874;2023-03-23T09:13:19;8.57;;;3.08;;
60704;SDS011;46545;38.014;-7.874;2023-03-23T09:15:20;9.05;;;3.53;;
60704;SDS011;46545;38.014;-7.874;2023-03-23T09:17:21;6.20;;;2.88;;
60704;SDS011;46545;38.014;-7.874;2023-03-23T09:19:23;9.25;;;3.17;;
60704;SDS011;46545;38.014;-7.874;2023-03-23T09:21:24;9.73;;;2.90;;
60704;SDS011;46545;38.014;-7.874;2023-03-23T09:23:25;9.18;;;3.22;;
60704;SDS011;46545;38.014;-7.874;2023-03-23T09:25:26;8.68;;;3.60;;
60704;SDS011;46545;38.014;-7.874;2023-03-23T09:27:27;10.73;;;2.85;;
60704;SDS011;46545;38.014;-7.874;2023-03-23T09:29:28;7.15;;;3.83;;
60704;SDS011;46545;38.014;-7.874;2023-03-23T09:31:28;12.98;;;4.03;;
60704;SDS011;46545;38.014;-7.874;2023-03-23T09:33:31;8.02;;;3.65;;
60704;SDS011;46545;38.014;-7.874;2023-03-23T09:35:35;14.10;;;4.70;;
60704;SDS011;46545;38.014;-7.874;2023-03-23T09:37:38;8.02;;;3.47;;
60704;SDS011;46545;38.014;-7.874;2023-03-23T09:39:38;8.88;;;5.03;;
60704;SDS011;46545;38.014;-7.874;2023-03-23T09:43:49;13.30;;;5.22;;
60704;SDS011;46545;38.014;-7.874;2023-03-23T09:50:16;12.25;;;4.72;;
60704;SDS011;46545;38.014;-7.874;2023-03-23T09:52:18;9.85;;;4.40;;
60704;SDS011;46545;38.014;-7.874;2023-03-23T09:54:38;15.70;;;4.78;;
60704;SDS011;46545;38.014;-7.874;2023-03-23T09:56:39;10.73;;;3.80;;
60704;SDS011;46545;38.014;-7.874;2023-03-23T09:58:45;10.70;;;3.90;;
60704;SDS011;46545;38.014;-7.874;2023-03-23T10:01:02;13.27;;;4.00;;
60704;SDS011;46545;38.014;-7.874;2023-03-23T10:03:26;9.32;;;3.83;;
60704;SDS011;46545;38.014;-7.874;2023-03-23T10:05:29;10.60;;;3.63;;
60704;SDS011;46545;38.014;-7.874;2023-03-23T10:09:45;5.43;;;2.85;;
60704;SDS011;46545;38.014;-7.874;2023-03-23T10:11:56;8.00;;;3.55;;
60704;SDS011;46545;38.014;-7.874;2023-03-23T10:16:01;7.60;;;4.65;;
60704;SDS011;46545;38.014;-7.874;2023-03-23T10:24:17;10.68;;;5.78;;
60704;SDS011;46545;38.014;-7.874;2023-03-23T10:28:46;15.75;;;7.00;;
60704;SDS011;46545;38.014;-7.874;2023-03-23T10:30:49;15.57;;;6.32;;
60704;SDS011;46545;38.014;-7.874;2023-03-23T10:34:53;9.82;;;5.43;;
60704;SDS011;46545;38.014;-7.874;2023-03-23T10:41:14;8.48;;;4.22;;
60704;SDS011;46545;38.014;-7.874;2023-03-23T10:43:15;9.73;;;4.28;;
60704;SDS011;46545;38.014;-7.874;2023-03-23T10:45:19;11.25;;;4.50;;
60704;SDS011;46545;38.014;-7.874;2023-03-23T10:47:21;7.35;;;4.03;;
60704;SDS011;46545;38.014;-7.874;2023-03-23T10:49:23;6.47;;;3.92;;
60704;SDS011;46545;38.014;-7.874;2023-03-23T10:51:31;8.95;;;3.45;;
60704;SDS011;46545;38.014;-7.874;2023-03-23T10:53:37;5.05;;;3.17;;
60704;SDS011;46545;38.014;-7.874;2023-03-23T11:03:41;9.02;;;4.00;;
60704;SDS011;46545;38.014;-7.874;2023-03-23T11:08:25;5.43;;;3.58;;
60704;SDS011;46545;38.014;-7.874;2023-03-23T11:10:27;5.47;;;3.30;;
60704;SDS011;46545;38.014;-7.874;2023-03-23T11:12:29;4.57;;;2.60;;
60704;SDS011;46545;38.014;-7.874;2023-03-23T11:14:34;11.65;;;2.88;;
60704;SDS011;46545;38.014;-7.874;2023-03-23T11:16:42;7.32;;;2.00;;
60704;SDS011;46545;38.014;-7.874;2023-03-23T11:18:55;7.28;;;1.98;;
60704;SDS011;46545;38.014;-7.874;2023-03-23T11:20:56;6.27;;;2.70;;
60704;SDS011;46545;38.014;-7.874;2023-03-23T11:22:57;8.15;;;2.00;;
60704;SDS011;46545;38.014;-7.874;2023-03-23T11:25:13;6.40;;;1.98;;
60704;SDS011;46545;38.014;-7.874;2023-03-23T11:27:30;4.45;;;1.80;;
60704;SDS011;46545;38.014;-7.874;2023-03-23T11:29:53;4.75;;;1.42;;
60704;SDS011;46545;38.014;-7.874;2023-03-23T11:32:10;5.50;;;1.48;;
60704;SDS011;46545;38.014;-7.874;2023-03-23T11:36:12;7.38;;;1.55;;
60704;SDS011;46545;38.014;-7.874;2023-03-23T11:38:18;3.97;;;1.25;;
60704;SDS011;46545;38.014;-7.874;2023-03-23T11:40:20;5.38;;;1.02;;
60704;SDS011;46545;38.014;-7.874;2023-03-23T11:42:23;3.17;;;1.15;;
60704;SDS011;46545;38.014;-7.874;2023-03-23T11:44:32;4.20;;;1.23;;
60704;SDS011;46545;38.014;-7.874;2023-03-23T11:46:39;4.72;;;1.58;;
60704;SDS011;46545;38.014;-7.874;2023-03-23T11:48:48;3.08;;;1.30;;
60704;SDS011;46545;38.014;-7.874;2023-03-23T11:53:07;2.33;;;1.38;;
60704;SDS011;46545;38.014;-7.874;2023-03-23T11:55:19;2.97;;;1.08;;
60704;SDS011;46545;38.014;-7.874;2023-03-23T11:57:20;4.32;;;1.42;;
60704;SDS011;46545;38.014;-7.874;2023-03-23T11:59:28;4.40;;;1.90;;
60704;SDS011;46545;38.014;-7.874;2023-03-23T12:01:35;4.88;;;1.60;;
60704;SDS011;46545;38.014;-7.874;2023-03-23T12:06:08;4.38;;;1.30;;
60704;SDS011;46545;38.014;-7.874;2023-03-23T12:10:38;4.13;;;0.93;;
60704;SDS011;46545;38.014;-7.874;2023-03-23T12:15:05;2.95;;;1.48;;
60704;SDS011;46545;38.014;-7.874;2023-03-23T12:19:09;5.60;;;0.98;;
60704;SDS011;46545;38.014;-7.874;2023-03-23T12:23:22;2.72;;;1.40;;
60704;SDS011;46545;38.014;-7.874;2023-03-23T12:34:47;5.60;;;1.15;;
60704;SDS011;46545;38.014;-7.874;2023-03-23T12:40:28;5.32;;;1.30;;
60704;SDS011;46545;38.014;-7.874;2023-03-23T12:44:12;4.85;;;1.75;;
60704;SDS011;46545;38.014;-7.874;2023-03-23T12:48:37;5.43;;;2.30;;
60704;SDS011;46545;38.014;-7.874;2023-03-23T12:50:59;4.25;;;1.92;;
60704;SDS011;46545;38.014;-7.874;2023-03-23T12:53:13;2.97;;;1.60;;
60704;SDS011;46545;38.014;-7.874;2023-03-23T12:55:17;6.38;;;2.72;;
60704;SDS011;46545;38.014;-7.874;2023-03-23T12:57:28;2.33;;;1.65;;
60704;SDS011;46545;38.014;-7.874;2023-03-23T13:01:41;2.25;;;1.90;;
60704;SDS011;46545;38.014;-7.874;2023-03-23T13:03:44;4.13;;;2.15;;
60704;SDS011;46545;38.014;-7.874;2023-03-23T13:05:49;3.30;;;1.35;;
60704;SDS011;46545;38.014;-7.874;2023-03-23T13:07:56;4.05;;;2.30;;
60704;SDS011;46545;38.014;-7.874;2023-03-23T13:10:02;3.42;;;1.92;;
60704;SDS011;46545;38.014;-7.874;2023-03-23T13:12:04;7.47;;;2.33;;
60704;SDS011;46545;38.014;-7.874;2023-03-23T13:18:38;4.25;;;2.75;;
60704;SDS011;46545;38.014;-7.874;2023-03-23T13:32:17;3.15;;;1.00;;
60704;SDS011;46545;38.014;-7.874;2023-03-23T13:34:25;3.13;;;0.63;;
60704;SDS011;46545;38.014;-7.874;2023-03-23T13:36:36;1.00;;;0.70;;
60704;SDS011;46545;38.014;-7.874;2023-03-23T13:38:37;2.30;;;0.60;;
60704;SDS011;46545;38.014;-7.874;2023-03-23T13:40:40;1.65;;;0.50;;
60704;SDS011;46545;38.014;-7.874;2023-03-23T13:42:48;0.88;;;0.32;;
60704;SDS011;46545;38.014;-7.874;2023-03-23T13:46:57;2.22;;;0.80;;
60704;SDS011;46545;38.014;-7.874;2023-03-23T13:51:22;2.47;;;0.40;;
60704;SDS011;46545;38.014;-7.874;2023-03-23T13:53:25;2.15;;;0.50;;
60704;SDS011;46545;38.014;-7.874;2023-03-23T13:59:34;1.88;;;0.68;;
60704;SDS011;46545;38.014;-7.874;2023-03-23T14:01:36;4.43;;;1.08;;
60704;SDS011;46545;38.014;-7.874;2023-03-23T14:03:40;4.68;;;0.63;;
60704;SDS011;46545;38.014;-7.874;2023-03-23T14:05:42;2.65;;;0.85;;
60704;SDS011;46545;38.014;-7.874;2023-03-23T14:10:16;2.67;;;0.90;;
60704;SDS011;46545;38.014;-7.874;2023-03-23T14:12:18;2.60;;;1.38;;
60704;SDS011;46545;38.014;-7.874;2023-03-23T14:14:22;1.45;;;0.47;;
60704;SDS011;46545;38.014;-7.874;2023-03-23T14:16:24;2.53;;;0.82;;
60704;SDS011;46545;38.014;-7.874;2023-03-23T14:18:30;3.33;;;0.63;;